sensor_id;sensor_type;location;lat;lon;timestamp;P1;durP1;ratioP1;P2;durP2;ratioP2
72053;SDS011;59918;51.280;7.950;2022-09-09T00:00:21;3.53;;;1.10;;
72053;SDS011;59918;51.280;7.950;2022-09-09T00:02:49;4.53;;;1.40;;
72053;SDS011;59918;51.280;7.950;2022-09-09T00:05:29;4.03;;;1.30;;
72053;SDS011;59918;51.280;7.950;2022-09-09T00:07:59;3.53;;;1.33;;
72053;SDS011;59918;51.280;7.950;2022-09-09T00:10:39;4.90;;;1.40;;
72053;SDS011;59918;51.280;7.950;2022-09-09T00:21:28;4.50;;;1.33;;
72053;SDS011;59918;51.280;7.950;2022-09-09T00:23:59;2.83;;;1.15;;
72053;SDS011;59918;51.280;7.950;2022-09-09T00:31:37;1.30;;;1.17;;
72053;SDS011;59918;51.280;7.950;2022-09-09T00:34:10;2.25;;;1.10;;
72053;SDS011;59918;51.280;7.950;2022-09-09T00:36:37;3.20;;;1.20;;
72053;SDS011;59918;51.280;7.950;2022-09-09T00:39:03;3.35;;;1.63;;
72053;SDS011;59918;51.280;7.950;2022-09-09T00:44:30;3.85;;;1.60;;
72053;SDS011;59918;51.280;7.950;2022-09-09T00:47:04;1.75;;;1.13;;
72053;SDS011;59918;51.280;7.950;2022-09-09T00:49:39;3.75;;;1.23;;
72053;SDS011;59918;51.280;7.950;2022-09-09T00:57:36;2.70;;;1.30;;
72053;SDS011;59918;51.280;7.950;2022-09-09T01:05:27;4.05;;;1.17;;
72053;SDS011;59918;51.280;7.950;2022-09-09T01:08:02;2.53;;;1.23;;
72053;SDS011;59918;51.280;7.950;2022-09-09T01:13:19;3.20;;;1.60;;
72053;SDS011;59918;51.280;7.950;2022-09-09T01:15:49;2.83;;;1.50;;
72053;SDS011;59918;51.280;7.950;2022-09-09T01:18:19;1.83;;;1.13;;
72053;SDS011;59918;51.280;7.950;2022-09-09T01:26:18;2.90;;;1.58;;
72053;SDS011;59918;51.280;7.950;2022-09-09T01:28:49;3.05;;;1.23;;
72053;SDS011;59918;51.280;7.950;2022-09-09T01:31:32;2.42;;;1.60;;
72053;SDS011;59918;51.280;7.950;2022-09-09T01:34:01;3.03;;;1.60;;
72053;SDS011;59918;51.280;7.950;2022-09-09T01:36:38;4.68;;;1.60;;
72053;SDS011;59918;51.280;7.950;2022-09-09T01:39:04;6.18;;;1.45;;
72053;SDS011;59918;51.280;7.950;2022-09-09T01:41:32;3.08;;;1.60;;
72053;SDS011;59918;51.280;7.950;2022-09-09T01:43:57;2.80;;;1.45;;
72053;SDS011;59918;51.280;7.950;2022-09-09T01:46:23;3.17;;;1.33;;
72053;SDS011;59918;51.280;7.950;2022-09-09T01:48:49;4.57;;;1.90;;
72053;SDS011;59918;51.280;7.950;2022-09-09T01:51:15;5.65;;;2.35;;
72053;SDS011;59918;51.280;7.950;2022-09-09T01:53:41;6.20;;;1.52;;
72053;SDS011;59918;51.280;7.950;2022-09-09T01:59:02;5.78;;;1.85;;
72053;SDS011;59918;51.280;7.950;2022-09-09T02:04:18;5.50;;;1.45;;
72053;SDS011;59918;51.280;7.950;2022-09-09T02:06:46;2.67;;;1.35;;
72053;SDS011;59918;51.280;7.950;2022-09-09T02:09:13;4.95;;;1.90;;
72053;SDS011;59918;51.280;7.950;2022-09-09T02:11:43;5.65;;;2.28;;
72053;SDS011;59918;51.280;7.950;2022-09-09T02:14:14;6.07;;;2.00;;
72053;SDS011;59918;51.280;7.950;2022-09-09T02:19:23;6.22;;;1.92;;
72053;SDS011;59918;51.280;7.950;2022-09-09T02:21:53;5.97;;;2.30;;
72053;SDS011;59918;51.280;7.950;2022-09-09T02:24:20;3.20;;;2.03;;
72053;SDS011;59918;51.280;7.950;2022-09-09T02:26:47;3.17;;;2.00;;
72053;SDS011;59918;51.280;7.950;2022-09-09T02:29:23;4.70;;;1.77;;
72053;SDS011;59918;51.280;7.950;2022-09-09T02:31:52;6.97;;;3.97;;
72053;SDS011;59918;51.280;7.950;2022-09-09T02:34:21;3.38;;;2.00;;
72053;SDS011;59918;51.280;7.950;2022-09-09T02:36:48;3.55;;;1.85;;
72053;SDS011;59918;51.280;7.950;2022-09-09T02:39:15;3.83;;;2.58;;
72053;SDS011;59918;51.280;7.950;2022-09-09T02:41:41;5.35;;;2.70;;
72053;SDS011;59918;51.280;7.950;2022-09-09T02:44:10;3.65;;;1.80;;
72053;SDS011;59918;51.280;7.950;2022-09-09T02:46:47;5.80;;;1.77;;
72053;SDS011;59918;51.280;7.950;2022-09-09T02:49:19;3.28;;;1.70;;
72053;SDS011;59918;51.280;7.950;2022-09-09T02:51:51;5.00;;;2.13;;
72053;SDS011;59918;51.280;7.950;2022-09-09T02:54:30;4.18;;;1.77;;
72053;SDS011;59918;51.280;7.950;2022-09-09T02:57:00;3.67;;;2.00;;
72053;SDS011;59918;51.280;7.950;2022-09-09T02:59:38;3.85;;;1.92;;
72053;SDS011;59918;51.280;7.950;2022-09-09T03:02:04;4.38;;;1.95;;
72053;SDS011;59918;51.280;7.950;2022-09-09T03:04:30;4.80;;;2.58;;
72053;SDS011;59918;51.280;7.950;2022-09-09T03:06:55;6.35;;;2.50;;
72053;SDS011;59918;51.280;7.950;2022-09-09T03:09:20;5.80;;;2.15;;
72053;SDS011;59918;51.280;7.950;2022-09-09T03:11:46;3.95;;;1.88;;
72053;SDS011;59918;51.280;7.950;2022-09-09T03:14:11;3.80;;;2.17;;
72053;SDS011;59918;51.280;7.950;2022-09-09T03:16:36;4.55;;;2.05;;
72053;SDS011;59918;51.280;7.950;2022-09-09T03:19:02;4.50;;;2.03;;
72053;SDS011;59918;51.280;7.950;2022-09-09T03:21:27;3.42;;;2.10;;
72053;SDS011;59918;51.280;7.950;2022-09-09T03:23:52;4.80;;;1.83;;
72053;SDS011;59918;51.280;7.950;2022-09-09T03:26:18;7.47;;;2.20;;
72053;SDS011;59918;51.280;7.950;2022-09-09T03:28:43;6.95;;;1.73;;
72053;SDS011;59918;51.280;7.950;2022-09-09T03:31:08;9.18;;;2.05;;
72053;SDS011;59918;51.280;7.950;2022-09-09T03:33:33;3.67;;;1.80;;
72053;SDS011;59918;51.280;7.950;2022-09-09T03:35:59;7.13;;;2.67;;
72053;SDS011;59918;51.280;7.950;2022-09-09T03:38:24;8.80;;;2.15;;
72053;SDS011;59918;51.280;7.950;2022-09-09T03:40:53;6.53;;;2.17;;
72053;SDS011;59918;51.280;7.950;2022-09-09T03:43:19;3.25;;;1.55;;
72053;SDS011;59918;51.280;7.950;2022-09-09T03:45:47;3.38;;;1.70;;
72053;SDS011;59918;51.280;7.950;2022-09-09T03:48:13;4.45;;;1.90;;
72053;SDS011;59918;51.280;7.950;2022-09-09T03:50:43;2.92;;;1.50;;
72053;SDS011;59918;51.280;7.950;2022-09-09T03:53:09;4.28;;;1.80;;
72053;SDS011;59918;51.280;7.950;2022-09-09T03:55:34;5.90;;;1.88;;
72053;SDS011;59918;51.280;7.950;2022-09-09T03:58:00;4.65;;;2.03;;
72053;SDS011;59918;51.280;7.950;2022-09-09T04:00:25;3.20;;;2.20;;
72053;SDS011;59918;51.280;7.950;2022-09-09T04:02:50;5.97;;;1.95;;
72053;SDS011;59918;51.280;7.950;2022-09-09T04:05:15;3.90;;;2.00;;
72053;SDS011;59918;51.280;7.950;2022-09-09T04:07:41;3.65;;;2.20;;
72053;SDS011;59918;51.280;7.950;2022-09-09T04:10:08;4.40;;;2.50;;
72053;SDS011;59918;51.280;7.950;2022-09-09T04:12:33;3.17;;;1.80;;
72053;SDS011;59918;51.280;7.950;2022-09-09T04:14:58;5.82;;;2.25;;
72053;SDS011;59918;51.280;7.950;2022-09-09T04:17:24;5.18;;;2.38;;
72053;SDS011;59918;51.280;7.950;2022-09-09T04:19:49;3.50;;;1.90;;
72053;SDS011;59918;51.280;7.950;2022-09-09T04:22:14;7.65;;;2.00;;
72053;SDS011;59918;51.280;7.950;2022-09-09T04:24:39;7.32;;;2.17;;
72053;SDS011;59918;51.280;7.950;2022-09-09T04:27:05;4.82;;;2.50;;
72053;SDS011;59918;51.280;7.950;2022-09-09T04:29:30;2.22;;;2.00;;
72053;SDS011;59918;51.280;7.950;2022-09-09T04:31:55;4.38;;;1.73;;
72053;SDS011;59918;51.280;7.950;2022-09-09T04:34:20;6.25;;;2.75;;
72053;SDS011;59918;51.280;7.950;2022-09-09T04:36:45;4.72;;;2.00;;
72053;SDS011;59918;51.280;7.950;2022-09-09T04:39:13;5.45;;;2.42;;
72053;SDS011;59918;51.280;7.950;2022-09-09T04:41:38;4.90;;;1.90;;
72053;SDS011;59918;51.280;7.950;2022-09-09T04:44:04;5.93;;;2.00;;
72053;SDS011;59918;51.280;7.950;2022-09-09T04:46:29;5.75;;;2.22;;
72053;SDS011;59918;51.280;7.950;2022-09-09T04:48:57;6.65;;;2.47;;
72053;SDS011;59918;51.280;7.950;2022-09-09T04:51:22;4.53;;;2.08;;
72053;SDS011;59918;51.280;7.950;2022-09-09T04:53:50;7.07;;;2.15;;
72053;SDS011;59918;51.280;7.950;2022-09-09T04:56:15;4.40;;;1.88;;
72053;SDS011;59918;51.280;7.950;2022-09-09T04:58:42;6.18;;;2.17;;
72053;SDS011;59918;51.280;7.950;2022-09-09T05:01:08;5.28;;;2.45;;
72053;SDS011;59918;51.280;7.950;2022-09-09T05:06:44;4.20;;;2.03;;
72053;SDS011;59918;51.280;7.950;2022-09-09T05:09:09;6.20;;;1.98;;
72053;SDS011;59918;51.280;7.950;2022-09-09T05:11:35;3.47;;;1.95;;
72053;SDS011;59918;51.280;7.950;2022-09-09T05:14:00;2.92;;;1.73;;
72053;SDS011;59918;51.280;7.950;2022-09-09T05:16:25;7.88;;;2.00;;
72053;SDS011;59918;51.280;7.950;2022-09-09T05:18:50;5.30;;;1.63;;
72053;SDS011;59918;51.280;7.950;2022-09-09T05:21:16;5.18;;;1.90;;
72053;SDS011;59918;51.280;7.950;2022-09-09T05:23:42;9.35;;;1.70;;
72053;SDS011;59918;51.280;7.950;2022-09-09T05:26:09;6.85;;;1.88;;
72053;SDS011;59918;51.280;7.950;2022-09-09T05:28:39;3.80;;;1.75;;
72053;SDS011;59918;51.280;7.950;2022-09-09T05:31:06;4.68;;;1.77;;
72053;SDS011;59918;51.280;7.950;2022-09-09T05:33:32;4.25;;;1.70;;
72053;SDS011;59918;51.280;7.950;2022-09-09T05:36:04;5.57;;;1.80;;
72053;SDS011;59918;51.280;7.950;2022-09-09T05:38:33;4.88;;;2.00;;
72053;SDS011;59918;51.280;7.950;2022-09-09T05:41:00;9.93;;;2.03;;
72053;SDS011;59918;51.280;7.950;2022-09-09T05:43:26;4.82;;;2.00;;
72053;SDS011;59918;51.280;7.950;2022-09-09T05:46:01;7.40;;;2.22;;
72053;SDS011;59918;51.280;7.950;2022-09-09T05:48:34;5.43;;;1.77;;
72053;SDS011;59918;51.280;7.950;2022-09-09T05:51:01;3.28;;;1.70;;
72053;SDS011;59918;51.280;7.950;2022-09-09T05:53:28;3.45;;;2.00;;
72053;SDS011;59918;51.280;7.950;2022-09-09T05:56:07;3.80;;;1.75;;
72053;SDS011;59918;51.280;7.950;2022-09-09T05:58:34;4.93;;;1.70;;
72053;SDS011;59918;51.280;7.950;2022-09-09T06:01:06;6.55;;;1.95;;
72053;SDS011;59918;51.280;7.950;2022-09-09T06:03:34;5.18;;;2.00;;
72053;SDS011;59918;51.280;7.950;2022-09-09T06:06:01;3.17;;;1.70;;
72053;SDS011;59918;51.280;7.950;2022-09-09T06:08:28;3.58;;;2.30;;
72053;SDS011;59918;51.280;7.950;2022-09-09T06:10:53;4.93;;;1.77;;
72053;SDS011;59918;51.280;7.950;2022-09-09T06:13:18;6.60;;;2.63;;
72053;SDS011;59918;51.280;7.950;2022-09-09T06:15:53;7.70;;;1.48;;
72053;SDS011;59918;51.280;7.950;2022-09-09T06:18:20;3.42;;;1.10;;
72053;SDS011;59918;51.280;7.950;2022-09-09T06:20:59;2.92;;;1.17;;
72053;SDS011;59918;51.280;7.950;2022-09-09T06:23:26;4.97;;;1.38;;
72053;SDS011;59918;51.280;7.950;2022-09-09T06:26:00;2.35;;;1.20;;
72053;SDS011;59918;51.280;7.950;2022-09-09T06:28:35;4.20;;;1.02;;
72053;SDS011;59918;51.280;7.950;2022-09-09T06:31:01;3.40;;;1.10;;
72053;SDS011;59918;51.280;7.950;2022-09-09T06:33:32;1.70;;;1.42;;
72053;SDS011;59918;51.280;7.950;2022-09-09T06:35:58;3.17;;;1.73;;
72053;SDS011;59918;51.280;7.950;2022-09-09T06:38:23;5.43;;;1.90;;
72053;SDS011;59918;51.280;7.950;2022-09-09T06:40:52;5.50;;;2.15;;
72053;SDS011;59918;51.280;7.950;2022-09-09T06:43:18;4.72;;;1.80;;
72053;SDS011;59918;51.280;7.950;2022-09-09T06:45:43;6.75;;;2.42;;
72053;SDS011;59918;51.280;7.950;2022-09-09T06:48:17;6.25;;;2.42;;
72053;SDS011;59918;51.280;7.950;2022-09-09T06:50:42;6.68;;;2.95;;
72053;SDS011;59918;51.280;7.950;2022-09-09T06:53:07;5.60;;;2.67;;
72053;SDS011;59918;51.280;7.950;2022-09-09T06:55:34;6.35;;;2.65;;
72053;SDS011;59918;51.280;7.950;2022-09-09T06:58:00;4.70;;;2.90;;
72053;SDS011;59918;51.280;7.950;2022-09-09T07:00:25;6.55;;;2.97;;
72053;SDS011;59918;51.280;7.950;2022-09-09T07:02:50;5.82;;;2.95;;
72053;SDS011;59918;51.280;7.950;2022-09-09T07:05:16;5.22;;;2.20;;
72053;SDS011;59918;51.280;7.950;2022-09-09T07:07:41;2.83;;;2.35;;
72053;SDS011;59918;51.280;7.950;2022-09-09T07:10:06;5.38;;;2.72;;
72053;SDS011;59918;51.280;7.950;2022-09-09T07:12:32;4.05;;;2.00;;
72053;SDS011;59918;51.280;7.950;2022-09-09T07:14:57;4.43;;;1.88;;
72053;SDS011;59918;51.280;7.950;2022-09-09T07:17:22;9.88;;;2.58;;
72053;SDS011;59918;51.280;7.950;2022-09-09T07:19:47;3.85;;;2.13;;
72053;SDS011;59918;51.280;7.950;2022-09-09T07:22:13;3.67;;;2.10;;
72053;SDS011;59918;51.280;7.950;2022-09-09T07:24:38;5.20;;;1.95;;
72053;SDS011;59918;51.280;7.950;2022-09-09T07:27:03;5.93;;;1.90;;
72053;SDS011;59918;51.280;7.950;2022-09-09T07:29:28;4.93;;;2.03;;
72053;SDS011;59918;51.280;7.950;2022-09-09T07:31:53;9.27;;;2.72;;
72053;SDS011;59918;51.280;7.950;2022-09-09T07:34:19;5.88;;;2.05;;
72053;SDS011;59918;51.280;7.950;2022-09-09T07:36:44;4.40;;;1.70;;
72053;SDS011;59918;51.280;7.950;2022-09-09T07:39:10;3.65;;;1.80;;
72053;SDS011;59918;51.280;7.950;2022-09-09T07:41:40;4.82;;;1.70;;
72053;SDS011;59918;51.280;7.950;2022-09-09T07:44:11;5.00;;;1.60;;
72053;SDS011;59918;51.280;7.950;2022-09-09T07:46:38;7.60;;;2.65;;
72053;SDS011;59918;51.280;7.950;2022-09-09T07:49:03;4.03;;;1.77;;
72053;SDS011;59918;51.280;7.950;2022-09-09T07:51:32;6.28;;;2.15;;
72053;SDS011;59918;51.280;7.950;2022-09-09T07:54:00;4.88;;;1.60;;
72053;SDS011;59918;51.280;7.950;2022-09-09T07:56:27;5.25;;;1.60;;
72053;SDS011;59918;51.280;7.950;2022-09-09T07:58:54;2.00;;;1.40;;
72053;SDS011;59918;51.280;7.950;2022-09-09T08:01:27;3.67;;;1.63;;
72053;SDS011;59918;51.280;7.950;2022-09-09T08:03:54;6.28;;;1.45;;
72053;SDS011;59918;51.280;7.950;2022-09-09T08:06:31;12.63;;;1.92;;
72053;SDS011;59918;51.280;7.950;2022-09-09T08:08:58;4.07;;;1.42;;
72053;SDS011;59918;51.280;7.950;2022-09-09T08:11:24;5.70;;;1.10;;
72053;SDS011;59918;51.280;7.950;2022-09-09T08:13:53;7.00;;;1.50;;
72053;SDS011;59918;51.280;7.950;2022-09-09T08:16:20;6.30;;;1.45;;
72053;SDS011;59918;51.280;7.950;2022-09-09T08:18:48;6.32;;;1.60;;
72053;SDS011;59918;51.280;7.950;2022-09-09T08:21:15;6.57;;;1.30;;
72053;SDS011;59918;51.280;7.950;2022-09-09T08:23:42;4.60;;;1.20;;
72053;SDS011;59918;51.280;7.950;2022-09-09T08:26:13;5.53;;;1.33;;
72053;SDS011;59918;51.280;7.950;2022-09-09T08:28:40;4.95;;;1.70;;
72053;SDS011;59918;51.280;7.950;2022-09-09T08:31:07;6.55;;;2.90;;
72053;SDS011;59918;51.280;7.950;2022-09-09T08:33:34;9.80;;;1.95;;
72053;SDS011;59918;51.280;7.950;2022-09-09T08:35:59;6.55;;;1.80;;
72053;SDS011;59918;51.280;7.950;2022-09-09T08:38:24;2.17;;;1.20;;
72053;SDS011;59918;51.280;7.950;2022-09-09T08:40:50;7.22;;;2.08;;
72053;SDS011;59918;51.280;7.950;2022-09-09T08:43:18;6.88;;;1.40;;
72053;SDS011;59918;51.280;7.950;2022-09-09T08:48:31;3.70;;;1.30;;
72053;SDS011;59918;51.280;7.950;2022-09-09T08:51:04;4.95;;;1.75;;
72053;SDS011;59918;51.280;7.950;2022-09-09T08:53:35;3.65;;;1.73;;
72053;SDS011;59918;51.280;7.950;2022-09-09T08:56:10;3.60;;;1.50;;
72053;SDS011;59918;51.280;7.950;2022-09-09T09:06:59;9.30;;;1.73;;
72053;SDS011;59918;51.280;7.950;2022-09-09T09:09:42;3.17;;;1.02;;
72053;SDS011;59918;51.280;7.950;2022-09-09T09:12:27;4.80;;;1.45;;
72053;SDS011;59918;51.280;7.950;2022-09-09T09:14:55;3.38;;;0.80;;
72053;SDS011;59918;51.280;7.950;2022-09-09T09:17:21;2.70;;;1.33;;
72053;SDS011;59918;51.280;7.950;2022-09-09T09:19:49;2.97;;;1.00;;
72053;SDS011;59918;51.280;7.950;2022-09-09T09:24:51;6.72;;;1.30;;
72053;SDS011;59918;51.280;7.950;2022-09-09T09:27:28;8.75;;;1.20;;
72053;SDS011;59918;51.280;7.950;2022-09-09T09:30:05;1.88;;;0.80;;
72053;SDS011;59918;51.280;7.950;2022-09-09T09:32:38;4.07;;;1.20;;
72053;SDS011;59918;51.280;7.950;2022-09-09T09:35:09;4.75;;;0.88;;
72053;SDS011;59918;51.280;7.950;2022-09-09T09:37:37;2.72;;;0.77;;
72053;SDS011;59918;51.280;7.950;2022-09-09T09:42:51;5.45;;;0.90;;
72053;SDS011;59918;51.280;7.950;2022-09-09T09:47:57;3.70;;;0.98;;
72053;SDS011;59918;51.280;7.950;2022-09-09T09:50:26;3.40;;;1.05;;
72053;SDS011;59918;51.280;7.950;2022-09-09T09:52:57;3.60;;;1.60;;
72053;SDS011;59918;51.280;7.950;2022-09-09T09:55:25;4.28;;;1.30;;
72053;SDS011;59918;51.280;7.950;2022-09-09T09:57:51;5.18;;;1.23;;
72053;SDS011;59918;51.280;7.950;2022-09-09T10:00:18;4.70;;;1.25;;
72053;SDS011;59918;51.280;7.950;2022-09-09T10:02:45;2.38;;;0.82;;
72053;SDS011;59918;51.280;7.950;2022-09-09T10:07:41;3.75;;;0.85;;
72053;SDS011;59918;51.280;7.950;2022-09-09T10:10:08;5.57;;;1.30;;
72053;SDS011;59918;51.280;7.950;2022-09-09T10:15:36;3.08;;;0.82;;
72053;SDS011;59918;51.280;7.950;2022-09-09T10:18:22;5.80;;;0.80;;
72053;SDS011;59918;51.280;7.950;2022-09-09T10:21:11;3.15;;;1.02;;
72053;SDS011;59918;51.280;7.950;2022-09-09T10:26:41;2.40;;;0.82;;
72053;SDS011;59918;51.280;7.950;2022-09-09T10:42:59;3.92;;;0.90;;
72053;SDS011;59918;51.280;7.950;2022-09-09T10:48:21;5.78;;;0.95;;
72053;SDS011;59918;51.280;7.950;2022-09-09T10:53:36;4.77;;;0.90;;
72053;SDS011;59918;51.280;7.950;2022-09-09T10:56:11;2.80;;;1.02;;
72053;SDS011;59918;51.280;7.950;2022-09-09T11:01:14;2.50;;;0.93;;
72053;SDS011;59918;51.280;7.950;2022-09-09T11:03:43;3.95;;;0.80;;
72053;SDS011;59918;51.280;7.950;2022-09-09T11:06:14;3.03;;;0.88;;
72053;SDS011;59918;51.280;7.950;2022-09-09T11:08:43;2.05;;;0.82;;
72053;SDS011;59918;51.280;7.950;2022-09-09T11:11:21;2.65;;;0.80;;
72053;SDS011;59918;51.280;7.950;2022-09-09T11:13:58;1.75;;;0.63;;
72053;SDS011;59918;51.280;7.950;2022-09-09T11:16:42;1.35;;;0.68;;
72053;SDS011;59918;51.280;7.950;2022-09-09T11:21:56;3.17;;;0.70;;
72053;SDS011;59918;51.280;7.950;2022-09-09T11:26:52;3.00;;;0.70;;
72053;SDS011;59918;51.280;7.950;2022-09-09T11:32:09;2.72;;;0.60;;
72053;SDS011;59918;51.280;7.950;2022-09-09T11:37:55;6.75;;;1.15;;
72053;SDS011;59918;51.280;7.950;2022-09-09T11:40:34;4.53;;;0.80;;
72053;SDS011;59918;51.280;7.950;2022-09-09T11:45:39;3.65;;;0.73;;
72053;SDS011;59918;51.280;7.950;2022-09-09T11:48:26;1.80;;;0.57;;
72053;SDS011;59918;51.280;7.950;2022-09-09T11:51:03;2.92;;;0.55;;
72053;SDS011;59918;51.280;7.950;2022-09-09T11:53:29;0.70;;;0.40;;
72053;SDS011;59918;51.280;7.950;2022-09-09T11:56:04;2.78;;;0.80;;
72053;SDS011;59918;51.280;7.950;2022-09-09T11:58:38;2.60;;;0.70;;
72053;SDS011;59918;51.280;7.950;2022-09-09T12:01:13;2.63;;;0.70;;
72053;SDS011;59918;51.280;7.950;2022-09-09T12:06:52;2.75;;;0.65;;
72053;SDS011;59918;51.280;7.950;2022-09-09T12:12:22;2.55;;;0.90;;
72053;SDS011;59918;51.280;7.950;2022-09-09T12:14:58;0.88;;;0.60;;
72053;SDS011;59918;51.280;7.950;2022-09-09T12:17:45;2.45;;;0.68;;
72053;SDS011;59918;51.280;7.950;2022-09-09T12:25:41;3.78;;;0.90;;
72053;SDS011;59918;51.280;7.950;2022-09-09T12:28:15;2.03;;;0.60;;
72053;SDS011;59918;51.280;7.950;2022-09-09T12:33:39;3.58;;;0.75;;
72053;SDS011;59918;51.280;7.950;2022-09-09T12:36:05;3.13;;;0.75;;
72053;SDS011;59918;51.280;7.950;2022-09-09T12:38:38;3.22;;;0.55;;
72053;SDS011;59918;51.280;7.950;2022-09-09T12:41:05;3.97;;;0.75;;
72053;SDS011;59918;51.280;7.950;2022-09-09T12:43:30;9.63;;;1.40;;
72053;SDS011;59918;51.280;7.950;2022-09-09T12:46:00;3.13;;;0.80;;
72053;SDS011;59918;51.280;7.950;2022-09-09T12:51:05;1.67;;;0.80;;
72053;SDS011;59918;51.280;7.950;2022-09-09T12:53:40;2.17;;;0.63;;
72053;SDS011;59918;51.280;7.950;2022-09-09T12:56:07;5.35;;;1.20;;
72053;SDS011;59918;51.280;7.950;2022-09-09T12:58:44;1.52;;;0.68;;
72053;SDS011;59918;51.280;7.950;2022-09-09T13:01:17;2.08;;;0.90;;
72053;SDS011;59918;51.280;7.950;2022-09-09T13:03:46;1.92;;;0.60;;
72053;SDS011;59918;51.280;7.950;2022-09-09T13:06:12;4.63;;;0.70;;
72053;SDS011;59918;51.280;7.950;2022-09-09T13:08:43;2.47;;;0.77;;
72053;SDS011;59918;51.280;7.950;2022-09-09T13:11:10;1.63;;;0.57;;
72053;SDS011;59918;51.280;7.950;2022-09-09T13:13:40;2.00;;;0.70;;
72053;SDS011;59918;51.280;7.950;2022-09-09T13:16:17;1.20;;;0.70;;
72053;SDS011;59918;51.280;7.950;2022-09-09T13:18:44;1.52;;;0.55;;
72053;SDS011;59918;51.280;7.950;2022-09-09T13:21:10;2.25;;;0.60;;
72053;SDS011;59918;51.280;7.950;2022-09-09T13:23:36;1.92;;;0.70;;
72053;SDS011;59918;51.280;7.950;2022-09-09T13:26:06;3.17;;;0.70;;
72053;SDS011;59918;51.280;7.950;2022-09-09T13:28:46;3.85;;;1.13;;
72053;SDS011;59918;51.280;7.950;2022-09-09T13:31:21;2.00;;;0.60;;
72053;SDS011;59918;51.280;7.950;2022-09-09T13:33:47;1.63;;;0.60;;
72053;SDS011;59918;51.280;7.950;2022-09-09T13:36:12;2.53;;;0.63;;
72053;SDS011;59918;51.280;7.950;2022-09-09T13:38:59;2.67;;;0.60;;
72053;SDS011;59918;51.280;7.950;2022-09-09T13:41:32;1.92;;;0.57;;
72053;SDS011;59918;51.280;7.950;2022-09-09T13:44:01;1.73;;;0.60;;
72053;SDS011;59918;51.280;7.950;2022-09-09T13:46:32;1.85;;;0.50;;
72053;SDS011;59918;51.280;7.950;2022-09-09T13:51:34;1.40;;;0.55;;
72053;SDS011;59918;51.280;7.950;2022-09-09T13:54:00;2.88;;;0.50;;
72053;SDS011;59918;51.280;7.950;2022-09-09T13:56:26;2.72;;;0.50;;
72053;SDS011;59918;51.280;7.950;2022-09-09T13:58:51;2.95;;;0.70;;
72053;SDS011;59918;51.280;7.950;2022-09-09T14:01:19;1.92;;;0.50;;
72053;SDS011;59918;51.280;7.950;2022-09-09T14:03:44;3.88;;;0.82;;
72053;SDS011;59918;51.280;7.950;2022-09-09T14:06:10;1.20;;;0.70;;
72053;SDS011;59918;51.280;7.950;2022-09-09T14:08:38;2.40;;;0.70;;
72053;SDS011;59918;51.280;7.950;2022-09-09T14:11:03;1.65;;;0.60;;
72053;SDS011;59918;51.280;7.950;2022-09-09T14:13:29;1.67;;;0.55;;
72053;SDS011;59918;51.280;7.950;2022-09-09T14:15:54;1.98;;;0.52;;
72053;SDS011;59918;51.280;7.950;2022-09-09T14:18:19;3.13;;;0.50;;
72053;SDS011;59918;51.280;7.950;2022-09-09T14:20:45;2.53;;;0.60;;
72053;SDS011;59918;51.280;7.950;2022-09-09T14:23:10;0.95;;;0.60;;
72053;SDS011;59918;51.280;7.950;2022-09-09T14:25:38;2.40;;;0.40;;
72053;SDS011;59918;51.280;7.950;2022-09-09T14:28:07;1.95;;;0.30;;
72053;SDS011;59918;51.280;7.950;2022-09-09T14:30:34;1.55;;;0.50;;
72053;SDS011;59918;51.280;7.950;2022-09-09T14:32:59;1.57;;;0.60;;
72053;SDS011;59918;51.280;7.950;2022-09-09T14:35:26;1.70;;;0.67;;
72053;SDS011;59918;51.280;7.950;2022-09-09T14:37:51;1.60;;;0.40;;
72053;SDS011;59918;51.280;7.950;2022-09-09T14:40:17;2.30;;;0.60;;
72053;SDS011;59918;51.280;7.950;2022-09-09T14:42:42;3.22;;;0.73;;
72053;SDS011;59918;51.280;7.950;2022-09-09T14:45:07;2.45;;;0.65;;
72053;SDS011;59918;51.280;7.950;2022-09-09T14:47:33;1.27;;;0.60;;
72053;SDS011;59918;51.280;7.950;2022-09-09T14:49:58;1.50;;;0.80;;
72053;SDS011;59918;51.280;7.950;2022-09-09T14:52:23;1.20;;;0.60;;
72053;SDS011;59918;51.280;7.950;2022-09-09T14:54:48;1.08;;;0.63;;
72053;SDS011;59918;51.280;7.950;2022-09-09T14:57:14;4.88;;;0.75;;
72053;SDS011;59918;51.280;7.950;2022-09-09T14:59:39;2.88;;;1.08;;
72053;SDS011;59918;51.280;7.950;2022-09-09T15:02:05;1.67;;;0.80;;
72053;SDS011;59918;51.280;7.950;2022-09-09T15:04:30;2.80;;;1.00;;
72053;SDS011;59918;51.280;7.950;2022-09-09T15:06:56;2.47;;;1.40;;
72053;SDS011;59918;51.280;7.950;2022-09-09T15:09:21;5.65;;;1.35;;
72053;SDS011;59918;51.280;7.950;2022-09-09T15:11:46;2.65;;;0.80;;
72053;SDS011;59918;51.280;7.950;2022-09-09T15:14:11;1.40;;;0.70;;
72053;SDS011;59918;51.280;7.950;2022-09-09T15:16:37;1.40;;;0.70;;
72053;SDS011;59918;51.280;7.950;2022-09-09T15:19:03;3.40;;;0.85;;
72053;SDS011;59918;51.280;7.950;2022-09-09T15:21:30;1.17;;;0.60;;
72053;SDS011;59918;51.280;7.950;2022-09-09T15:23:57;2.17;;;0.70;;
72053;SDS011;59918;51.280;7.950;2022-09-09T15:26:23;1.55;;;0.60;;
72053;SDS011;59918;51.280;7.950;2022-09-09T15:28:49;4.07;;;0.70;;
72053;SDS011;59918;51.280;7.950;2022-09-09T15:31:15;1.25;;;0.52;;
72053;SDS011;59918;51.280;7.950;2022-09-09T15:33:46;0.93;;;0.55;;
72053;SDS011;59918;51.280;7.950;2022-09-09T15:36:14;1.73;;;0.57;;
72053;SDS011;59918;51.280;7.950;2022-09-09T15:38:39;1.88;;;0.75;;
72053;SDS011;59918;51.280;7.950;2022-09-09T15:41:07;1.70;;;0.88;;
72053;SDS011;59918;51.280;7.950;2022-09-09T15:43:32;1.27;;;0.60;;
72053;SDS011;59918;51.280;7.950;2022-09-09T15:45:58;2.63;;;0.60;;
72053;SDS011;59918;51.280;7.950;2022-09-09T15:48:36;1.67;;;0.70;;
72053;SDS011;59918;51.280;7.950;2022-09-09T15:51:01;4.70;;;0.60;;
72053;SDS011;59918;51.280;7.950;2022-09-09T15:53:28;2.28;;;0.80;;
72053;SDS011;59918;51.280;7.950;2022-09-09T15:55:54;1.25;;;0.70;;
72053;SDS011;59918;51.280;7.950;2022-09-09T15:58:20;1.45;;;0.52;;
72053;SDS011;59918;51.280;7.950;2022-09-09T16:00:45;2.33;;;0.75;;
72053;SDS011;59918;51.280;7.950;2022-09-09T16:03:10;1.45;;;0.60;;
72053;SDS011;59918;51.280;7.950;2022-09-09T16:05:36;2.08;;;0.43;;
72053;SDS011;59918;51.280;7.950;2022-09-09T16:08:01;2.13;;;0.63;;
72053;SDS011;59918;51.280;7.950;2022-09-09T16:10:26;1.95;;;0.63;;
72053;SDS011;59918;51.280;7.950;2022-09-09T16:12:51;4.63;;;0.73;;
72053;SDS011;59918;51.280;7.950;2022-09-09T16:15:17;1.85;;;0.70;;
72053;SDS011;59918;51.280;7.950;2022-09-09T16:17:42;5.30;;;0.73;;
72053;SDS011;59918;51.280;7.950;2022-09-09T16:20:07;2.47;;;0.82;;
72053;SDS011;59918;51.280;7.950;2022-09-09T16:22:33;2.65;;;1.00;;
72053;SDS011;59918;51.280;7.950;2022-09-09T16:24:58;3.67;;;0.77;;
72053;SDS011;59918;51.280;7.950;2022-09-09T16:27:23;1.75;;;0.50;;
72053;SDS011;59918;51.280;7.950;2022-09-09T16:29:50;2.55;;;0.60;;
72053;SDS011;59918;51.280;7.950;2022-09-09T16:32:15;1.45;;;0.55;;
72053;SDS011;59918;51.280;7.950;2022-09-09T16:34:40;2.35;;;0.80;;
72053;SDS011;59918;51.280;7.950;2022-09-09T16:37:05;2.78;;;0.90;;
72053;SDS011;59918;51.280;7.950;2022-09-09T16:39:30;1.57;;;0.87;;
72053;SDS011;59918;51.280;7.950;2022-09-09T16:41:56;0.95;;;0.75;;
72053;SDS011;59918;51.280;7.950;2022-09-09T16:44:21;6.72;;;1.17;;
72053;SDS011;59918;51.280;7.950;2022-09-09T16:46:47;6.95;;;1.35;;
72053;SDS011;59918;51.280;7.950;2022-09-09T16:49:14;9.32;;;1.13;;
72053;SDS011;59918;51.280;7.950;2022-09-09T16:51:46;4.43;;;1.33;;
72053;SDS011;59918;51.280;7.950;2022-09-09T16:54:14;3.05;;;1.30;;
72053;SDS011;59918;51.280;7.950;2022-09-09T16:56:41;3.90;;;1.40;;
72053;SDS011;59918;51.280;7.950;2022-09-09T16:59:18;3.08;;;1.38;;
72053;SDS011;59918;51.280;7.950;2022-09-09T17:01:46;6.60;;;1.70;;
72053;SDS011;59918;51.280;7.950;2022-09-09T17:04:13;4.20;;;1.70;;